createdAt,value
2019-03-05T00:00:28.177Z,80.86
2019-03-05T00:02:56.115Z,82.00
2019-03-05T00:05:25.302Z,82.27
2019-03-05T00:07:53.700Z,83.08
2019-03-05T00:10:21.702Z,82.26
2019-03-05T00:12:50.128Z,82.09
2019-03-05T00:15:20.724Z,80.82
2019-03-05T00:17:48.905Z,81.35
2019-03-05T00:20:16.867Z,81.21
2019-03-05T00:22:44.842Z,80.87
2019-03-05T00:25:17.932Z,80.16
2019-03-05T00:28:09.843Z,80.80
2019-03-05T00:31:05.657Z,80.56
2019-03-05T00:34:19.609Z,79.81
2019-03-05T00:37:03.543Z,78.94
2019-03-05T00:40:44.417Z,79.04
2019-03-05T00:44:09.903Z,79.20
2019-03-05T00:47:24.182Z,79.30
2019-03-05T00:50:45.524Z,79.41
2019-03-05T00:54:05.224Z,79.47
2019-03-05T00:57:10.501Z,79.26
2019-03-05T01:00:33.369Z,79.58
2019-03-05T01:03:27.058Z,79.51
2019-03-05T01:06:23.734Z,79.80
2019-03-05T01:08:53.322Z,78.57
2019-03-05T01:11:21.924Z,78.37
2019-03-05T01:13:50.051Z,77.83
2019-03-05T01:16:21.586Z,78.57
2019-03-05T01:18:50.065Z,78.16
2019-03-05T01:21:18.228Z,78.18
2019-03-05T01:23:46.477Z,78.73
2019-03-05T01:26:14.564Z,79.22
2019-03-05T01:28:43.239Z,78.92
2019-03-05T01:31:28.756Z,78.94
2019-03-05T01:34:07.459Z,79.67
2019-03-05T01:36:39.617Z,79.24
2019-03-05T01:39:28.588Z,79.12
2019-03-05T01:41:56.763Z,78.60
2019-03-05T01:44:24.760Z,78.94
2019-03-05T01:46:52.750Z,79.12
2019-03-05T01:49:20.675Z,79.00
2019-03-05T01:51:48.699Z,78.94
2019-03-05T01:54:16.805Z,78.73
2019-03-05T01:56:44.893Z,78.65
2019-03-05T01:59:13.060Z,79.16
2019-03-05T02:01:41.529Z,79.00
2019-03-05T02:04:09.547Z,79.30
2019-03-05T02:06:37.728Z,79.45
2019-03-05T02:09:08.059Z,78.96
2019-03-05T02:11:36.660Z,79.42
2019-03-05T02:14:05.785Z,79.43
2019-03-05T02:16:33.882Z,79.31
2019-03-05T02:19:41.110Z,79.37
2019-03-05T02:22:29.491Z,78.67
2019-03-05T02:25:30.953Z,78.52
2019-03-05T02:28:56.630Z,78.13
2019-03-05T02:32:18.962Z,77.40
2019-03-05T02:35:07.499Z,77.85
2019-03-05T02:38:39.467Z,78.53
2019-03-05T02:41:57.555Z,78.89
2019-03-05T02:45:08.842Z,78.78
2019-03-05T02:48:30.439Z,78.95
2019-03-05T02:51:35.015Z,78.94
2019-03-05T02:54:50.673Z,79.27
2019-03-05T02:57:17.141Z,79.19
2019-03-05T02:59:45.183Z,79.84
2019-03-05T03:02:28.521Z,79.65
2019-03-05T03:05:07.236Z,79.58
2019-03-05T03:07:35.729Z,79.16
2019-03-05T03:10:19.238Z,79.51
2019-03-05T03:12:47.274Z,79.48
2019-03-05T03:15:16.947Z,79.58
2019-03-05T03:17:45.305Z,79.24
2019-03-05T03:20:19.047Z,79.01
2019-03-05T03:22:47.037Z,79.06
2019-03-05T03:25:18.710Z,78.92
2019-03-05T03:27:46.804Z,78.63
2019-03-05T03:30:21.187Z,78.63
2019-03-05T03:32:49.172Z,78.83
2019-03-05T03:35:17.247Z,78.49
2019-03-05T03:37:45.384Z,78.49
2019-03-05T03:40:16.689Z,78.41
2019-03-05T03:42:44.895Z,78.57
2019-03-05T03:45:20.386Z,78.71
2019-03-05T03:47:48.683Z,79.15
2019-03-05T03:50:16.961Z,79.73
2019-03-05T03:52:45.004Z,79.33
2019-03-05T03:55:13.637Z,79.10
2019-03-05T03:57:41.973Z,79.29
2019-03-05T04:00:16.929Z,79.99
2019-03-05T04:02:44.927Z,80.01
2019-03-05T04:05:13.313Z,80.31
2019-03-05T04:07:41.297Z,80.74
2019-03-05T04:10:10.135Z,80.90
2019-03-05T04:12:38.142Z,81.08
2019-03-05T04:15:08.738Z,80.71
2019-03-05T04:17:36.793Z,80.89
2019-03-05T04:20:05.747Z,81.09
2019-03-05T04:22:34.061Z,81.27
2019-03-05T04:25:02.297Z,80.82
2019-03-05T04:27:30.224Z,80.39
2019-03-05T04:29:58.305Z,80.65
2019-03-05T04:32:26.336Z,80.60
2019-03-05T04:34:54.686Z,80.68
2019-03-05T04:37:22.688Z,80.85
2019-03-05T04:39:51.621Z,81.33
2019-03-05T04:42:19.663Z,81.21
2019-03-05T04:45:07.285Z,81.00
2019-03-05T04:47:35.316Z,81.40
2019-03-05T04:50:11.476Z,81.41
2019-03-05T04:52:39.561Z,81.14
2019-03-05T04:55:07.990Z,81.05
2019-03-05T04:57:36.106Z,81.21
2019-03-05T05:00:07.358Z,81.18
2019-03-05T05:02:35.745Z,80.97
2019-03-05T05:05:04.177Z,80.89
2019-03-05T05:07:32.275Z,80.62
2019-03-05T05:10:00.347Z,80.53
2019-03-05T05:12:28.497Z,80.66
2019-03-05T05:14:57.120Z,80.80
2019-03-05T05:17:25.185Z,80.60
2019-03-05T05:19:53.365Z,80.34
2019-03-05T05:22:21.658Z,80.26
2019-03-05T05:24:49.794Z,80.44
2019-03-05T05:27:18.149Z,80.69
2019-03-05T05:29:46.481Z,80.65
2019-03-05T05:32:14.816Z,80.32
2019-03-05T05:34:42.801Z,80.38
2019-03-05T05:37:12.772Z,79.77
2019-03-05T05:40:24.658Z,79.73
2019-03-05T05:42:52.764Z,80.16
2019-03-05T05:45:22.883Z,79.74
2019-03-05T05:47:51.017Z,79.68
2019-03-05T05:50:19.430Z,80.04
2019-03-05T05:52:48.531Z,79.63
2019-03-05T05:55:16.567Z,79.74
2019-03-05T05:57:44.618Z,79.96
2019-03-05T06:00:14.680Z,80.13
2019-03-05T06:02:42.719Z,78.85
2019-03-05T06:05:11.501Z,79.00
2019-03-05T06:07:41.432Z,79.02
2019-03-05T06:10:11.994Z,78.87
2019-03-05T06:12:41.055Z,78.75
2019-03-05T06:15:11.676Z,78.41
2019-03-05T06:17:41.594Z,78.45
2019-03-05T06:20:11.582Z,78.10
2019-03-05T06:22:39.643Z,78.46
2019-03-05T06:25:08.318Z,77.10
2019-03-05T06:27:36.361Z,77.02
2019-03-05T06:30:07.777Z,76.36
2019-03-05T06:32:35.901Z,76.20
2019-03-05T06:35:04.504Z,75.22
2019-03-05T06:37:33.203Z,74.00
2019-03-05T06:40:01.718Z,74.32
2019-03-05T06:42:30.139Z,73.64
2019-03-05T06:44:58.436Z,73.28
2019-03-05T06:47:26.464Z,72.63
2019-03-05T06:49:54.524Z,72.23
2019-03-05T06:52:22.773Z,72.20
2019-03-05T06:54:51.026Z,71.23
2019-03-05T06:57:19.097Z,71.86
2019-03-05T06:59:47.598Z,71.93
2019-03-05T07:02:15.651Z,71.27
2019-03-05T07:04:55.711Z,71.60
2019-03-05T07:07:25.666Z,71.70
2019-03-05T07:10:31.516Z,71.77
2019-03-05T07:13:13.423Z,71.71
2019-03-05T07:16:36.563Z,72.41
2019-03-05T07:19:57.593Z,71.81
2019-03-05T07:22:46.842Z,71.54
2019-03-05T07:25:14.846Z,71.40
2019-03-05T07:27:50.751Z,72.20
2019-03-05T07:30:26.594Z,72.03
2019-03-05T07:32:57.062Z,71.19
2019-03-05T07:35:27.964Z,69.29
2019-03-05T07:37:56.077Z,68.71
2019-03-05T07:40:24.210Z,68.18
2019-03-05T07:42:52.432Z,66.70
2019-03-05T07:45:20.478Z,67.28
2019-03-05T07:47:48.962Z,66.54
2019-03-05T07:50:16.924Z,65.97
2019-03-05T07:52:45.242Z,66.23
2019-03-05T07:55:15.856Z,66.64
2019-03-05T07:57:45.123Z,65.26
2019-03-05T08:00:16.745Z,64.53
2019-03-05T08:02:44.937Z,65.23
2019-03-05T08:05:13.932Z,64.60
2019-03-05T08:07:42.121Z,64.93
2019-03-05T08:10:27.438Z,65.44
2019-03-05T08:13:27.030Z,65.07
2019-03-05T08:16:14.206Z,64.60
2019-03-05T08:18:44.197Z,64.00
2019-03-05T08:21:12.354Z,64.04
2019-03-05T08:23:41.003Z,63.61
2019-03-05T08:26:09.159Z,62.48
2019-03-05T08:28:38.424Z,63.00
2019-03-05T08:31:06.525Z,64.06
2019-03-05T08:33:34.959Z,63.55
2019-03-05T08:36:04.283Z,63.22
2019-03-05T08:38:32.631Z,63.69
2019-03-05T08:41:00.760Z,62.99
2019-03-05T08:43:28.741Z,63.30
2019-03-05T08:45:56.744Z,62.33
2019-03-05T08:48:25.559Z,61.93
2019-03-05T08:50:54.652Z,61.55
2019-03-05T08:53:22.724Z,61.03
2019-03-05T08:55:51.193Z,61.23
2019-03-05T08:58:19.307Z,61.00
2019-03-05T09:00:48.259Z,61.17
2019-03-05T09:03:16.545Z,61.05
2019-03-05T09:05:44.773Z,60.43
2019-03-05T09:08:12.913Z,58.08
2019-03-05T09:10:41.050Z,59.11
2019-03-05T09:13:09.056Z,58.72
2019-03-05T09:15:37.309Z,59.32
2019-03-05T09:18:05.456Z,59.15
2019-03-05T09:20:33.869Z,57.35
2019-03-05T09:23:02.098Z,56.23
2019-03-05T09:25:31.226Z,56.70
2019-03-05T09:27:59.527Z,56.06
2019-03-05T09:30:27.700Z,54.64
2019-03-05T09:32:55.792Z,54.33
2019-03-05T09:35:23.855Z,54.83
2019-03-05T09:37:51.874Z,53.65
2019-03-05T09:40:21.253Z,52.69
2019-03-05T09:42:49.420Z,52.74
2019-03-05T09:45:18.148Z,52.34
2019-03-05T09:47:47.494Z,52.46
2019-03-05T09:50:16.310Z,51.66
2019-03-05T09:52:54.384Z,51.68
2019-03-05T09:55:17.550Z,51.70
2019-03-05T09:57:48.296Z,51.46
2019-03-05T10:00:18.568Z,50.79
2019-03-05T10:02:46.515Z,49.56
2019-03-05T10:05:15.067Z,49.01
2019-03-05T10:07:43.389Z,50.07
2019-03-05T10:10:15.340Z,49.21
2019-03-05T10:12:45.436Z,49.36
2019-03-05T10:15:16.872Z,49.14
2019-03-05T10:17:45.622Z,49.38
2019-03-05T10:20:16.561Z,48.26
2019-03-05T10:22:45.497Z,48.68
2019-03-05T10:25:14.964Z,48.46
2019-03-05T10:27:43.213Z,48.38
2019-03-05T10:30:25.036Z,47.45
2019-03-05T10:32:53.486Z,47.01
2019-03-05T10:35:23.839Z,46.51
2019-03-05T10:37:53.309Z,46.39
2019-03-05T10:40:22.807Z,46.12
2019-03-05T10:42:51.134Z,45.48
2019-03-05T10:45:19.107Z,45.65
2019-03-05T10:47:48.676Z,46.14
2019-03-05T10:50:19.606Z,45.77
2019-03-05T10:52:47.876Z,46.24
2019-03-05T10:55:25.968Z,45.79
2019-03-05T10:57:46.436Z,45.81
2019-03-05T11:00:27.343Z,44.65
2019-03-05T11:02:55.572Z,44.13
2019-03-05T11:05:24.223Z,44.21
2019-03-05T11:07:52.194Z,44.16
2019-03-05T11:10:20.259Z,45.22
2019-03-05T11:12:48.885Z,45.46
2019-03-05T11:15:21.423Z,45.64
2019-03-05T11:17:49.534Z,45.82
2019-03-05T11:20:17.710Z,45.66
2019-03-05T11:22:46.344Z,45.21
2019-03-05T11:25:14.405Z,44.15
2019-03-05T11:27:42.534Z,44.88
2019-03-05T11:30:14.572Z,44.57
2019-03-05T11:32:42.942Z,45.25
2019-03-05T11:35:12.397Z,45.27
2019-03-05T11:37:40.569Z,45.83
2019-03-05T11:40:20.793Z,47.20
2019-03-05T11:42:40.974Z,47.93
2019-03-05T11:45:18.014Z,46.92
2019-03-05T11:47:46.158Z,46.90
2019-03-05T11:50:14.680Z,47.58
2019-03-05T11:52:42.905Z,47.48
2019-03-05T11:55:13.470Z,46.87
2019-03-05T11:57:41.663Z,46.75
2019-03-05T12:00:18.643Z,47.68
2019-03-05T12:02:46.793Z,48.61
2019-03-05T12:05:14.789Z,47.63
2019-03-05T12:07:46.128Z,47.90
2019-03-05T12:10:17.026Z,48.61
2019-03-05T12:12:45.257Z,49.02
2019-03-05T12:15:15.108Z,50.09
2019-03-05T12:17:43.112Z,49.74
2019-03-05T12:20:12.076Z,50.26
2019-03-05T12:22:40.233Z,50.17
2019-03-05T12:25:12.120Z,50.60
2019-03-05T12:27:40.636Z,50.10
2019-03-05T12:30:13.166Z,50.65
2019-03-05T12:32:41.476Z,50.08
2019-03-05T12:35:10.206Z,50.99
2019-03-05T12:37:38.256Z,51.38
2019-03-05T12:40:08.420Z,52.28
2019-03-05T12:42:36.430Z,51.57
2019-03-05T12:45:05.722Z,50.85
2019-03-05T12:47:33.733Z,51.49
2019-03-05T12:50:03.736Z,51.54
2019-03-05T12:52:31.919Z,52.42
2019-03-05T12:55:00.588Z,52.69
2019-03-05T12:57:29.764Z,53.30
2019-03-05T12:59:57.781Z,52.52
2019-03-05T13:02:25.775Z,52.46
2019-03-05T13:04:53.789Z,53.33
2019-03-05T13:07:21.954Z,54.04
2019-03-05T13:09:52.596Z,54.15
2019-03-05T13:12:20.452Z,54.80
2019-03-05T13:14:48.419Z,55.49
2019-03-05T13:17:16.435Z,55.03
2019-03-05T13:19:47.866Z,55.14
2019-03-05T13:22:14.373Z,55.66
2019-03-05T13:24:46.854Z,57.12
2019-03-05T13:27:13.852Z,57.26
2019-03-05T13:29:41.950Z,57.89
2019-03-05T13:32:10.522Z,58.09
2019-03-05T13:34:38.517Z,58.43
2019-03-05T13:37:06.451Z,57.45
2019-03-05T13:39:35.198Z,58.01
2019-03-05T13:42:03.494Z,59.00
2019-03-05T13:44:34.206Z,59.84
2019-03-05T13:47:05.720Z,61.04
2019-03-05T13:50:08.598Z,62.71
2019-03-05T13:53:14.863Z,63.50
2019-03-05T13:56:44.123Z,64.40
2019-03-05T13:59:46.526Z,66.70
2019-03-05T14:02:29.539Z,66.92
2019-03-05T14:05:43.910Z,68.09
2019-03-05T14:09:04.281Z,67.57
2019-03-05T14:11:34.118Z,67.96
2019-03-05T14:14:02.406Z,70.14
2019-03-05T14:16:32.515Z,70.15
2019-03-05T14:19:00.827Z,70.44
2019-03-05T14:21:28.879Z,70.22
2019-03-05T14:23:57.199Z,71.39
2019-03-05T14:26:25.207Z,72.07
2019-03-05T14:28:53.317Z,72.79
2019-03-05T14:31:21.465Z,72.21
2019-03-05T14:33:50.390Z,72.22
2019-03-05T14:36:18.606Z,72.56
2019-03-05T14:38:48.138Z,72.01
2019-03-05T14:41:16.229Z,74.09
2019-03-05T14:43:44.390Z,73.81
2019-03-05T14:46:12.503Z,73.75
2019-03-05T14:48:40.517Z,73.86
2019-03-05T14:51:08.738Z,76.23
2019-03-05T14:53:36.731Z,75.54
2019-03-05T14:56:13.161Z,74.84
2019-03-05T14:58:41.264Z,75.94
2019-03-05T15:01:10.078Z,75.34
2019-03-05T15:03:38.548Z,74.03
2019-03-05T15:06:06.514Z,75.45
2019-03-05T15:08:34.726Z,75.19
2019-03-05T15:11:03.141Z,75.37
2019-03-05T15:13:33.909Z,74.55
2019-03-05T15:16:02.413Z,76.75
2019-03-05T15:18:30.994Z,76.17
2019-03-05T15:20:59.743Z,76.39
2019-03-05T15:23:29.484Z,76.40
2019-03-05T15:25:57.560Z,77.32
2019-03-05T15:28:25.768Z,76.32
2019-03-05T15:30:54.458Z,77.79
2019-03-05T15:33:22.747Z,78.67
2019-03-05T15:35:52.176Z,79.26
2019-03-05T15:38:20.322Z,79.96
2019-03-05T15:40:48.523Z,79.92
2019-03-05T15:43:16.669Z,80.24
2019-03-05T15:45:45.009Z,79.52
2019-03-05T15:48:13.072Z,78.22
2019-03-05T15:50:41.384Z,78.49
2019-03-05T15:53:09.492Z,79.81
2019-03-05T15:55:37.560Z,80.01
2019-03-05T15:58:06.020Z,81.00
2019-03-05T16:00:34.955Z,79.71
2019-03-05T16:03:03.611Z,79.17
2019-03-05T16:05:31.715Z,79.36
2019-03-05T16:08:01.886Z,80.36
2019-03-05T16:10:31.197Z,80.92
2019-03-05T16:12:59.900Z,79.69
2019-03-05T16:15:28.284Z,81.10
2019-03-05T16:17:57.034Z,81.21
2019-03-05T16:20:27.134Z,80.53
2019-03-05T16:22:56.791Z,78.99
2019-03-05T16:25:25.053Z,80.13
2019-03-05T16:27:53.771Z,80.31
2019-03-05T16:30:40.258Z,78.93
2019-03-05T16:33:28.210Z,79.96
2019-03-05T16:36:25.290Z,80.50
2019-03-05T16:39:04.112Z,81.58
2019-03-05T16:41:53.298Z,80.21
2019-03-05T16:44:51.607Z,79.81
2019-03-05T16:47:26.753Z,81.15
2019-03-05T16:50:15.847Z,80.10
2019-03-05T16:53:04.974Z,80.24
2019-03-05T16:55:50.844Z,79.18
2019-03-05T16:58:38.323Z,79.60
2019-03-05T17:01:16.196Z,79.21
2019-03-05T17:03:56.902Z,79.25
2019-03-05T17:06:36.237Z,79.64
2019-03-05T17:09:34.382Z,79.74
2019-03-05T17:12:02.557Z,78.25
2019-03-05T17:14:32.789Z,76.82
2019-03-05T17:17:14.145Z,77.39
2019-03-05T17:19:44.091Z,76.91
2019-03-05T17:22:12.080Z,78.14
2019-03-05T17:24:40.185Z,77.08
2019-03-05T17:27:08.233Z,77.34
2019-03-05T17:29:37.393Z,78.78
2019-03-05T17:32:08.501Z,79.36
2019-03-05T17:34:36.943Z,78.29
2019-03-05T17:37:06.822Z,79.52
2019-03-05T17:39:35.007Z,79.52
2019-03-05T17:42:04.175Z,79.27
2019-03-05T17:44:32.448Z,79.07
2019-03-05T17:47:00.482Z,78.85
2019-03-05T17:49:28.593Z,78.64
2019-03-05T17:51:57.639Z,78.33
2019-03-05T17:54:26.090Z,79.09
2019-03-05T17:56:57.339Z,78.74
2019-03-05T17:59:27.771Z,79.21
2019-03-05T18:01:55.895Z,79.14
2019-03-05T18:04:24.334Z,78.83
2019-03-05T18:06:56.250Z,78.02
2019-03-05T18:09:26.205Z,77.68
2019-03-05T18:11:55.001Z,78.15
2019-03-05T18:14:23.985Z,79.01
2019-03-05T18:16:52.322Z,79.17
2019-03-05T18:19:22.010Z,77.85
2019-03-05T18:21:50.452Z,77.67
2019-03-05T18:24:18.738Z,77.34
2019-03-05T18:26:48.333Z,77.48
2019-03-05T18:29:16.639Z,77.62
2019-03-05T18:31:48.431Z,78.09
2019-03-05T18:34:17.516Z,78.18
2019-03-05T18:36:45.936Z,78.00
2019-03-05T18:39:14.490Z,78.09
2019-03-05T18:41:42.995Z,78.36
2019-03-05T18:44:11.366Z,79.83
2019-03-05T18:46:41.077Z,79.82
2019-03-05T18:49:09.147Z,80.07
2019-03-05T18:51:37.764Z,80.70
2019-03-05T18:54:06.119Z,80.66
2019-03-05T18:56:34.336Z,81.83
2019-03-05T18:59:02.477Z,80.90
2019-03-05T19:01:30.878Z,81.12
2019-03-05T19:03:59.231Z,81.54
2019-03-05T19:06:27.277Z,82.53
2019-03-05T19:08:55.585Z,81.68
2019-03-05T19:11:24.286Z,81.98
2019-03-05T19:13:53.456Z,81.61
2019-03-05T19:16:21.474Z,81.48
2019-03-05T19:18:49.375Z,81.80
2019-03-05T19:21:19.035Z,81.92
2019-03-05T19:23:48.440Z,81.94
2019-03-05T19:26:17.034Z,81.63
2019-03-05T19:28:45.470Z,81.75
2019-03-05T19:31:14.568Z,81.35
2019-03-05T19:33:43.839Z,82.68
2019-03-05T19:36:12.347Z,82.56
2019-03-05T19:38:40.592Z,82.95
2019-03-05T19:41:08.927Z,82.90
2019-03-05T19:43:37.250Z,82.98
2019-03-05T19:46:05.219Z,82.80
2019-03-05T19:48:33.376Z,82.76
2019-03-05T19:51:01.546Z,83.20
2019-03-05T19:53:29.747Z,83.66
2019-03-05T19:55:57.819Z,83.88
2019-03-05T19:58:25.981Z,84.05
2019-03-05T20:01:03.668Z,83.97
2019-03-05T20:03:31.968Z,84.00
2019-03-05T20:05:59.996Z,84.15
2019-03-05T20:08:28.231Z,84.93
2019-03-05T20:10:57.760Z,84.17
2019-03-05T20:13:26.235Z,84.12
2019-03-05T20:15:54.299Z,84.06
2019-03-05T20:18:23.428Z,84.67
2019-03-05T20:20:51.452Z,84.82
2019-03-05T20:23:19.716Z,84.66
2019-03-05T20:25:47.832Z,85.27
2019-03-05T20:28:16.016Z,84.59
2019-03-05T20:30:44.281Z,84.52
2019-03-05T20:33:12.535Z,84.06
2019-03-05T20:35:40.991Z,83.61
2019-03-05T20:38:09.449Z,83.46
2019-03-05T20:40:37.778Z,83.76
2019-03-05T20:43:06.063Z,84.06
2019-03-05T20:45:34.578Z,83.84
2019-03-05T20:48:02.810Z,84.06
2019-03-05T20:50:31.276Z,84.31
2019-03-05T20:52:59.426Z,84.24
2019-03-05T20:55:27.535Z,84.94
2019-03-05T20:57:55.607Z,84.56
2019-03-05T21:00:28.725Z,83.49
2019-03-05T21:03:02.318Z,83.65
2019-03-05T21:05:33.695Z,84.37
2019-03-05T21:08:01.814Z,84.01
2019-03-05T21:10:30.979Z,82.55
2019-03-05T21:12:59.030Z,82.58
2019-03-05T21:15:27.223Z,82.73
2019-03-05T21:17:55.296Z,82.88
2019-03-05T21:20:23.555Z,82.54
2019-03-05T21:22:51.579Z,82.17
2019-03-05T21:25:19.685Z,82.62
2019-03-05T21:27:47.902Z,82.25
2019-03-05T21:30:17.830Z,81.88
2019-03-05T21:32:47.141Z,82.02
2019-03-05T21:35:16.383Z,81.84
2019-03-05T21:37:44.687Z,82.18
2019-03-05T21:40:19.387Z,82.03
2019-03-05T21:42:47.406Z,82.53
2019-03-05T21:45:20.875Z,82.70
2019-03-05T21:47:48.764Z,82.55
2019-03-05T21:50:17.090Z,82.20
2019-03-05T21:52:45.134Z,82.63
2019-03-05T21:55:13.848Z,82.57
2019-03-05T21:57:42.150Z,82.17
2019-03-05T22:00:14.651Z,81.88
2019-03-05T22:02:44.353Z,81.97
2019-03-05T22:05:12.429Z,81.96
2019-03-05T22:07:40.500Z,81.90
2019-03-05T22:10:13.814Z,81.72
2019-03-05T22:12:43.287Z,81.98
2019-03-05T22:15:13.960Z,81.87
2019-03-05T22:17:42.168Z,81.36
2019-03-05T22:20:12.012Z,81.74
2019-03-05T22:22:39.980Z,81.59
2019-03-05T22:25:09.810Z,81.93
2019-03-05T22:27:37.798Z,82.21
2019-03-05T22:30:09.211Z,81.96
2019-03-05T22:32:37.198Z,82.08
2019-03-05T22:35:06.104Z,82.35
2019-03-05T22:37:34.070Z,81.78
2019-03-05T22:40:02.048Z,82.18
2019-03-05T22:42:31.345Z,83.56
2019-03-05T22:44:59.412Z,85.66
2019-03-05T22:47:27.889Z,86.69
2019-03-05T22:49:55.998Z,85.57
2019-03-05T22:52:24.157Z,85.73
2019-03-05T22:54:52.593Z,84.62
2019-03-05T22:57:20.654Z,85.10
2019-03-05T22:59:48.873Z,85.55
2019-03-05T23:02:16.853Z,85.63
2019-03-05T23:04:45.395Z,85.15
2019-03-05T23:07:13.959Z,84.68
2019-03-05T23:09:42.245Z,84.56
2019-03-05T23:12:10.660Z,84.64
2019-03-05T23:14:38.736Z,84.37
2019-03-05T23:17:07.187Z,83.96
2019-03-05T23:19:35.204Z,83.18
2019-03-05T23:22:08.367Z,84.17
2019-03-05T23:24:36.959Z,85.45
2019-03-05T23:27:06.344Z,84.92
2019-03-05T23:29:41.012Z,85.41
2019-03-05T23:32:10.137Z,86.30
2019-03-05T23:34:38.668Z,85.69
2019-03-05T23:37:07.356Z,87.07
2019-03-05T23:39:35.368Z,87.73
2019-03-05T23:42:03.690Z,88.39
2019-03-05T23:44:31.812Z,88.61
2019-03-05T23:47:00.420Z,89.02
2019-03-05T23:49:28.414Z,88.96
2019-03-05T23:51:56.460Z,88.80
2019-03-05T23:54:24.651Z,88.72
2019-03-05T23:56:53.018Z,89.35
2019-03-05T23:59:21.051Z,89.64
